sensor_id;sensor_type;location;lat;lon;timestamp;pressure;altitude;pressure_sealevel;temperature
64947;BMP280;51469;52.150;4.682;2023-06-04T00:03:26;102535.22;;;21.29
64947;BMP280;51469;52.150;4.682;2023-06-04T00:05:51;102528.25;;;21.07
64947;BMP280;51469;52.150;4.682;2023-06-04T00:08:17;102530.22;;;21.10
64947;BMP280;51469;52.150;4.682;2023-06-04T00:10:42;102526.94;;;21.18
64947;BMP280;51469;52.150;4.682;2023-06-04T00:13:07;102532.06;;;21.23
64947;BMP280;51469;52.150;4.682;2023-06-04T00:15:33;102532.94;;;21.17
64947;BMP280;51469;52.150;4.682;2023-06-04T00:17:58;102531.16;;;20.93
64947;BMP280;51469;52.150;4.682;2023-06-04T00:20:24;102537.88;;;20.99
64947;BMP280;51469;52.150;4.682;2023-06-04T00:22:49;102541.19;;;20.87
64947;BMP280;51469;52.150;4.682;2023-06-04T00:25:15;102534.41;;;20.81
64947;BMP280;51469;52.150;4.682;2023-06-04T00:27:40;102535.66;;;20.76
64947;BMP280;51469;52.150;4.682;2023-06-04T00:30:06;102537.38;;;20.53
64947;BMP280;51469;52.150;4.682;2023-06-04T00:32:31;102535.72;;;20.66
64947;BMP280;51469;52.150;4.682;2023-06-04T00:34:57;102526.56;;;20.65
64947;BMP280;51469;52.150;4.682;2023-06-04T00:37:27;102529.38;;;20.62
64947;BMP280;51469;52.150;4.682;2023-06-04T00:39:53;102534.97;;;20.58
64947;BMP280;51469;52.150;4.682;2023-06-04T00:42:18;102530.13;;;20.66
64947;BMP280;51469;52.150;4.682;2023-06-04T00:44:44;102539.72;;;20.65
64947;BMP280;51469;52.150;4.682;2023-06-04T00:47:11;102541.38;;;20.59
64947;BMP280;51469;52.150;4.682;2023-06-04T00:49:38;102532.59;;;20.57
64947;BMP280;51469;52.150;4.682;2023-06-04T00:52:03;102542.56;;;20.54
64947;BMP280;51469;52.150;4.682;2023-06-04T00:54:29;102535.81;;;20.48
64947;BMP280;51469;52.150;4.682;2023-06-04T00:56:55;102533.44;;;20.50
64947;BMP280;51469;52.150;4.682;2023-06-04T00:59:20;102538.22;;;20.43
64947;BMP280;51469;52.150;4.682;2023-06-04T01:02:00;102533.09;;;20.38
64947;BMP280;51469;52.150;4.682;2023-06-04T01:06:57;102534.16;;;20.61
64947;BMP280;51469;52.150;4.682;2023-06-04T01:09:28;102531.75;;;20.60
64947;BMP280;51469;52.150;4.682;2023-06-04T01:11:54;102529.41;;;20.51
64947;BMP280;51469;52.150;4.682;2023-06-04T01:14:23;102533.03;;;20.45
64947;BMP280;51469;52.150;4.682;2023-06-04T01:17:40;102531.88;;;20.39
64947;BMP280;51469;52.150;4.682;2023-06-04T01:22:38;102538.25;;;20.39
64947;BMP280;51469;52.150;4.682;2023-06-04T01:25:25;102549.50;;;20.25
64947;BMP280;51469;52.150;4.682;2023-06-04T01:27:54;102542.38;;;20.07
64947;BMP280;51469;52.150;4.682;2023-06-04T01:30:47;102532.03;;;20.04
64947;BMP280;51469;52.150;4.682;2023-06-04T01:33:15;102545.22;;;19.86
64947;BMP280;51469;52.150;4.682;2023-06-04T01:35:41;102544.81;;;19.98
64947;BMP280;51469;52.150;4.682;2023-06-04T01:38:07;102543.19;;;20.04
64947;BMP280;51469;52.150;4.682;2023-06-04T01:40:32;102541.63;;;19.96
64947;BMP280;51469;52.150;4.682;2023-06-04T01:42:58;102533.66;;;19.94
64947;BMP280;51469;52.150;4.682;2023-06-04T01:45:25;102540.44;;;19.97
64947;BMP280;51469;52.150;4.682;2023-06-04T01:47:51;102535.63;;;19.94
64947;BMP280;51469;52.150;4.682;2023-06-04T01:50:17;102536.03;;;19.89
64947;BMP280;51469;52.150;4.682;2023-06-04T01:52:43;102539.16;;;20.12
64947;BMP280;51469;52.150;4.682;2023-06-04T01:55:10;102540.72;;;20.20
64947;BMP280;51469;52.150;4.682;2023-06-04T01:57:37;102539.56;;;20.21
64947;BMP280;51469;52.150;4.682;2023-06-04T02:00:04;102540.78;;;20.13
64947;BMP280;51469;52.150;4.682;2023-06-04T02:02:33;102532.78;;;20.15
64947;BMP280;51469;52.150;4.682;2023-06-04T02:04:58;102529.66;;;20.09
64947;BMP280;51469;52.150;4.682;2023-06-04T02:07:23;102535.63;;;20.08
64947;BMP280;51469;52.150;4.682;2023-06-04T02:09:49;102529.66;;;19.99
64947;BMP280;51469;52.150;4.682;2023-06-04T02:12:15;102533.28;;;19.96
64947;BMP280;51469;52.150;4.682;2023-06-04T02:14:41;102530.53;;;19.78
64947;BMP280;51469;52.150;4.682;2023-06-04T02:17:08;102535.72;;;19.83
64947;BMP280;51469;52.150;4.682;2023-06-04T02:19:43;102529.34;;;19.76
64947;BMP280;51469;52.150;4.682;2023-06-04T02:22:16;102532.88;;;19.87
64947;BMP280;51469;52.150;4.682;2023-06-04T02:24:42;102528.16;;;19.70
64947;BMP280;51469;52.150;4.682;2023-06-04T02:27:08;102532.91;;;19.83
64947;BMP280;51469;52.150;4.682;2023-06-04T02:29:34;102534.94;;;19.48
64947;BMP280;51469;52.150;4.682;2023-06-04T02:31:59;102530.19;;;19.20
64947;BMP280;51469;52.150;4.682;2023-06-04T02:34:24;102536.13;;;19.29
64947;BMP280;51469;52.150;4.682;2023-06-04T02:36:50;102532.16;;;19.48
64947;BMP280;51469;52.150;4.682;2023-06-04T02:39:19;102530.53;;;19.68
64947;BMP280;51469;52.150;4.682;2023-06-04T02:41:44;102532.13;;;19.65
64947;BMP280;51469;52.150;4.682;2023-06-04T02:44:10;102533.75;;;19.63
64947;BMP280;51469;52.150;4.682;2023-06-04T02:46:36;102535.72;;;19.69
64947;BMP280;51469;52.150;4.682;2023-06-04T02:49:02;102529.75;;;19.71
64947;BMP280;51469;52.150;4.682;2023-06-04T02:51:27;102525.75;;;19.79
64947;BMP280;51469;52.150;4.682;2023-06-04T02:53:53;102526.94;;;19.78
64947;BMP280;51469;52.150;4.682;2023-06-04T02:56:19;102534.09;;;19.75
64947;BMP280;51469;52.150;4.682;2023-06-04T02:58:52;102534.53;;;19.56
64947;BMP280;51469;52.150;4.682;2023-06-04T03:01:27;102533.75;;;19.66
64947;BMP280;51469;52.150;4.682;2023-06-04T03:03:54;102532.13;;;19.76
64947;BMP280;51469;52.150;4.682;2023-06-04T03:06:21;102532.13;;;19.76
64947;BMP280;51469;52.150;4.682;2023-06-04T03:08:50;102537.72;;;19.62
64947;BMP280;51469;52.150;4.682;2023-06-04T03:11:17;102535.31;;;19.71
64947;BMP280;51469;52.150;4.682;2023-06-04T03:13:44;102534.19;;;19.37
64947;BMP280;51469;52.150;4.682;2023-06-04T03:16:10;102528.97;;;19.49
64947;BMP280;51469;52.150;4.682;2023-06-04T03:18:36;102526.59;;;19.58
64947;BMP280;51469;52.150;4.682;2023-06-04T03:21:03;102531.38;;;19.58
64947;BMP280;51469;52.150;4.682;2023-06-04T03:23:28;102519.41;;;19.64
64947;BMP280;51469;52.150;4.682;2023-06-04T03:25:54;102534.53;;;19.56
64947;BMP280;51469;52.150;4.682;2023-06-04T03:28:19;102529.78;;;19.57
64947;BMP280;51469;52.150;4.682;2023-06-04T03:30:45;102516.22;;;19.62
64947;BMP280;51469;52.150;4.682;2023-06-04T03:33:10;102529.75;;;19.71
64947;BMP280;51469;52.150;4.682;2023-06-04T03:35:35;102525.00;;;19.50
64947;BMP280;51469;52.150;4.682;2023-06-04T03:38:01;102536.13;;;19.61
64947;BMP280;51469;52.150;4.682;2023-06-04T03:40:26;102520.22;;;19.58
64947;BMP280;51469;52.150;4.682;2023-06-04T03:42:51;102532.16;;;19.58
64947;BMP280;51469;52.150;4.682;2023-06-04T03:45:17;102519.41;;;19.64
64947;BMP280;51469;52.150;4.682;2023-06-04T03:47:42;102524.22;;;19.50
64947;BMP280;51469;52.150;4.682;2023-06-04T03:50:08;102528.19;;;19.63
64947;BMP280;51469;52.150;4.682;2023-06-04T03:52:34;102528.22;;;19.45
64947;BMP280;51469;52.150;4.682;2023-06-04T03:54:59;102523.81;;;19.48
64947;BMP280;51469;52.150;4.682;2023-06-04T03:57:25;102532.16;;;19.62
64947;BMP280;51469;52.150;4.682;2023-06-04T03:59:50;102534.53;;;19.53
64947;BMP280;51469;52.150;4.682;2023-06-04T04:02:16;102536.91;;;19.51
64947;BMP280;51469;52.150;4.682;2023-06-04T04:04:44;102531.34;;;19.65
64947;BMP280;51469;52.150;4.682;2023-06-04T04:07:09;102544.88;;;19.70
64947;BMP280;51469;52.150;4.682;2023-06-04T04:09:36;102546.47;;;19.71
64947;BMP280;51469;52.150;4.682;2023-06-04T04:12:01;102537.69;;;19.72
64947;BMP280;51469;52.150;4.682;2023-06-04T04:14:26;102538.50;;;19.66
64947;BMP280;51469;52.150;4.682;2023-06-04T04:16:52;102543.25;;;19.69
64947;BMP280;51469;52.150;4.682;2023-06-04T04:19:17;102541.28;;;19.66
64947;BMP280;51469;52.150;4.682;2023-06-04T04:21:42;102540.06;;;19.74
64947;BMP280;51469;52.150;4.682;2023-06-04T04:24:08;102536.88;;;19.79
64947;BMP280;51469;52.150;4.682;2023-06-04T04:26:34;102536.13;;;19.75
64947;BMP280;51469;52.150;4.682;2023-06-04T04:29:00;102526.97;;;19.71
64947;BMP280;51469;52.150;4.682;2023-06-04T04:31:28;102536.13;;;19.64
64947;BMP280;51469;52.150;4.682;2023-06-04T04:33:55;102534.13;;;19.51
64947;BMP280;51469;52.150;4.682;2023-06-04T04:36:20;102536.53;;;19.63
64947;BMP280;51469;52.150;4.682;2023-06-04T04:38:45;102537.72;;;19.48
64947;BMP280;51469;52.150;4.682;2023-06-04T04:41:11;102539.31;;;19.63
64947;BMP280;51469;52.150;4.682;2023-06-04T04:43:37;102528.13;;;19.77
64947;BMP280;51469;52.150;4.682;2023-06-04T04:46:07;102524.97;;;19.78
64947;BMP280;51469;52.150;4.682;2023-06-04T04:48:32;102529.75;;;19.71
64947;BMP280;51469;52.150;4.682;2023-06-04T04:50:58;102534.88;;;19.90
64947;BMP280;51469;52.150;4.682;2023-06-04T04:53:25;102539.22;;;19.98
64947;BMP280;51469;52.150;4.682;2023-06-04T04:55:51;102518.53;;;19.92
64947;BMP280;51469;52.150;4.682;2023-06-04T04:58:16;102525.69;;;19.93
64947;BMP280;51469;52.150;4.682;2023-06-04T05:00:42;102531.28;;;19.89
64947;BMP280;51469;52.150;4.682;2023-06-04T05:03:07;102529.31;;;19.83
64947;BMP280;51469;52.150;4.682;2023-06-04T05:05:33;102520.19;;;19.75
64947;BMP280;51469;52.150;4.682;2023-06-04T05:07:58;102520.97;;;19.69
64947;BMP280;51469;52.150;4.682;2023-06-04T05:10:24;102524.88;;;20.06
64947;BMP280;51469;52.150;4.682;2023-06-04T05:12:54;102523.13;;;20.37
64947;BMP280;51469;52.150;4.682;2023-06-04T05:15:19;102524.63;;;20.59
64947;BMP280;51469;52.150;4.682;2023-06-04T05:17:45;102526.75;;;20.34
64947;BMP280;51469;52.150;4.682;2023-06-04T05:20:14;102531.09;;;20.35
64947;BMP280;51469;52.150;4.682;2023-06-04T05:22:41;102533.03;;;20.48
64947;BMP280;51469;52.150;4.682;2023-06-04T05:25:07;102538.59;;;20.52
64947;BMP280;51469;52.150;4.682;2023-06-04T05:27:33;102531.06;;;20.49
64947;BMP280;51469;52.150;4.682;2023-06-04T05:30:00;102535.75;;;20.62
64947;BMP280;51469;52.150;4.682;2023-06-04T05:32:26;102538.88;;;20.68
64947;BMP280;51469;52.150;4.682;2023-06-04T05:34:56;102534.97;;;20.62
64947;BMP280;51469;52.150;4.682;2023-06-04T05:37:23;102537.69;;;20.69
64947;BMP280;51469;52.150;4.682;2023-06-04T05:39:49;102534.84;;;20.79
64947;BMP280;51469;52.150;4.682;2023-06-04T05:42:15;102538.09;;;20.71
64947;BMP280;51469;52.150;4.682;2023-06-04T05:44:40;102536.38;;;20.84
64947;BMP280;51469;52.150;4.682;2023-06-04T05:47:06;102548.56;;;21.11
64947;BMP280;51469;52.150;4.682;2023-06-04T05:49:34;102541.00;;;21.08
64947;BMP280;51469;52.150;4.682;2023-06-04T05:51:59;102534.59;;;21.11
64947;BMP280;51469;52.150;4.682;2023-06-04T05:54:24;102536.13;;;21.19
64947;BMP280;51469;52.150;4.682;2023-06-04T05:56:50;102546.31;;;21.43
64947;BMP280;51469;52.150;4.682;2023-06-04T05:59:15;102532.06;;;21.23
64947;BMP280;51469;52.150;4.682;2023-06-04T06:01:41;102546.97;;;21.54
64947;BMP280;51469;52.150;4.682;2023-06-04T06:04:06;102541.78;;;21.89
64947;BMP280;51469;52.150;4.682;2023-06-04T06:06:32;102547.19;;;22.07
64947;BMP280;51469;52.150;4.682;2023-06-04T06:08:57;102556.00;;;22.02
64947;BMP280;51469;52.150;4.682;2023-06-04T06:11:23;102547.25;;;22.00
64947;BMP280;51469;52.150;4.682;2023-06-04T06:13:48;102548.91;;;22.24
64947;BMP280;51469;52.150;4.682;2023-06-04T06:16:14;102551.16;;;22.36
64947;BMP280;51469;52.150;4.682;2023-06-04T06:18:39;102547.41;;;22.49
64947;BMP280;51469;52.150;4.682;2023-06-04T06:21:05;102552.09;;;22.56
64947;BMP280;51469;52.150;4.682;2023-06-04T06:23:30;102532.03;;;22.61
64947;BMP280;51469;52.150;4.682;2023-06-04T06:25:56;102547.25;;;22.60
64947;BMP280;51469;52.150;4.682;2023-06-04T06:28:22;102540.56;;;22.77
64947;BMP280;51469;52.150;4.682;2023-06-04T06:30:47;102548.41;;;23.11
64947;BMP280;51469;52.150;4.682;2023-06-04T06:33:13;102553.03;;;23.21
64947;BMP280;51469;52.150;4.682;2023-06-04T06:35:38;102552.28;;;23.17
64947;BMP280;51469;52.150;4.682;2023-06-04T06:38:04;102556.69;;;23.18
64947;BMP280;51469;52.150;4.682;2023-06-04T06:40:30;102555.22;;;23.10
64947;BMP280;51469;52.150;4.682;2023-06-04T06:42:55;102565.75;;;23.26
64947;BMP280;51469;52.150;4.682;2023-06-04T06:45:21;102573.22;;;23.32
64947;BMP280;51469;52.150;4.682;2023-06-04T06:47:46;102560.56;;;23.24
64947;BMP280;51469;52.150;4.682;2023-06-04T06:50:11;102576.03;;;23.32
64947;BMP280;51469;52.150;4.682;2023-06-04T06:52:38;102569.44;;;23.42
64947;BMP280;51469;52.150;4.682;2023-06-04T06:55:04;102570.69;;;23.18
64947;BMP280;51469;52.150;4.682;2023-06-04T06:57:30;102570.66;;;23.41
64947;BMP280;51469;52.150;4.682;2023-06-04T06:59:55;102569.16;;;23.79
64947;BMP280;51469;52.150;4.682;2023-06-04T07:02:21;102582.34;;;23.59
64947;BMP280;51469;52.150;4.682;2023-06-04T07:04:46;102569.97;;;23.57
64947;BMP280;51469;52.150;4.682;2023-06-04T07:07:12;102561.56;;;23.76
64947;BMP280;51469;52.150;4.682;2023-06-04T07:09:37;102575.47;;;23.83
64947;BMP280;51469;52.150;4.682;2023-06-04T07:12:03;102563.97;;;23.97
64947;BMP280;51469;52.150;4.682;2023-06-04T07:14:28;102569.72;;;23.90
64947;BMP280;51469;52.150;4.682;2023-06-04T07:16:53;102570.91;;;24.28
64947;BMP280;51469;52.150;4.682;2023-06-04T07:19:19;102573.03;;;24.40
64947;BMP280;51469;52.150;4.682;2023-06-04T07:21:44;102581.25;;;24.47
64947;BMP280;51469;52.150;4.682;2023-06-04T07:24:10;102572.78;;;24.51
64947;BMP280;51469;52.150;4.682;2023-06-04T07:26:35;102576.28;;;24.19
64947;BMP280;51469;52.150;4.682;2023-06-04T07:29:02;102580.19;;;23.86
64947;BMP280;51469;52.150;4.682;2023-06-04T07:31:27;102579.75;;;23.68
64947;BMP280;51469;52.150;4.682;2023-06-04T07:33:52;102579.19;;;23.96
64947;BMP280;51469;52.150;4.682;2023-06-04T07:36:18;102567.44;;;24.21
64947;BMP280;51469;52.150;4.682;2023-06-04T07:38:43;102568.69;;;24.00
64947;BMP280;51469;52.150;4.682;2023-06-04T07:41:09;102573.66;;;23.93
64947;BMP280;51469;52.150;4.682;2023-06-04T07:43:35;102586.25;;;24.04
64947;BMP280;51469;52.150;4.682;2023-06-04T07:46:04;102578.84;;;24.14
64947;BMP280;51469;52.150;4.682;2023-06-04T07:48:29;102579.00;;;24.42
64947;BMP280;51469;52.150;4.682;2023-06-04T07:50:58;102581.56;;;24.17
64947;BMP280;51469;52.150;4.682;2023-06-04T07:53:24;102578.03;;;24.13
64947;BMP280;51469;52.150;4.682;2023-06-04T07:55:49;102576.59;;;24.05
64947;BMP280;51469;52.150;4.682;2023-06-04T07:58:15;102582.78;;;23.97
64947;BMP280;51469;52.150;4.682;2023-06-04T08:00:40;102585.00;;;23.66
64947;BMP280;51469;52.150;4.682;2023-06-04T08:03:06;102575.47;;;23.83
64947;BMP280;51469;52.150;4.682;2023-06-04T08:05:31;102579.59;;;24.14
64947;BMP280;51469;52.150;4.682;2023-06-04T08:07:56;102575.66;;;24.47
64947;BMP280;51469;52.150;4.682;2023-06-04T08:10:22;102575.00;;;24.75
64947;BMP280;51469;52.150;4.682;2023-06-04T08:12:47;102572.28;;;24.88
64947;BMP280;51469;52.150;4.682;2023-06-04T08:15:13;102584.53;;;24.46
64947;BMP280;51469;52.150;4.682;2023-06-04T08:17:38;102584.13;;;24.63
64947;BMP280;51469;52.150;4.682;2023-06-04T08:20:04;102581.84;;;24.90
64947;BMP280;51469;52.150;4.682;2023-06-04T08:22:34;102573.56;;;24.67
64947;BMP280;51469;52.150;4.682;2023-06-04T08:24:59;102582.91;;;24.96
64947;BMP280;51469;52.150;4.682;2023-06-04T08:27:25;102590.72;;;24.89
64947;BMP280;51469;52.150;4.682;2023-06-04T08:29:50;102581.47;;;25.20
64947;BMP280;51469;52.150;4.682;2023-06-04T08:32:17;102586.16;;;25.39
64947;BMP280;51469;52.150;4.682;2023-06-04T08:34:43;102580.13;;;25.41
64947;BMP280;51469;52.150;4.682;2023-06-04T08:37:08;102581.25;;;25.71
64947;BMP280;51469;52.150;4.682;2023-06-04T08:39:34;102584.81;;;25.59
64947;BMP280;51469;52.150;4.682;2023-06-04T08:42:00;102581.34;;;25.40
64947;BMP280;51469;52.150;4.682;2023-06-04T08:44:27;102591.84;;;25.80
64947;BMP280;51469;52.150;4.682;2023-06-04T08:46:54;102587.88;;;25.65
64947;BMP280;51469;52.150;4.682;2023-06-04T08:49:22;102590.72;;;25.90
64947;BMP280;51469;52.150;4.682;2023-06-04T08:51:50;102592.59;;;25.40
64947;BMP280;51469;52.150;4.682;2023-06-04T08:54:16;102590.91;;;25.70
64947;BMP280;51469;52.150;4.682;2023-06-04T08:56:42;102591.84;;;25.52
64947;BMP280;51469;52.150;4.682;2023-06-04T08:59:09;102596.06;;;25.59
64947;BMP280;51469;52.150;4.682;2023-06-04T09:01:36;102589.44;;;25.66
64947;BMP280;51469;52.150;4.682;2023-06-04T09:04:05;102599.03;;;25.40
64947;BMP280;51469;52.150;4.682;2023-06-04T09:06:34;102588.78;;;25.62
64947;BMP280;51469;52.150;4.682;2023-06-04T09:09:03;102588.22;;;26.08
64947;BMP280;51469;52.150;4.682;2023-06-04T09:11:35;102593.28;;;26.25
64947;BMP280;51469;52.150;4.682;2023-06-04T09:14:07;102600.88;;;26.00
64947;BMP280;51469;52.150;4.682;2023-06-04T09:16:42;102610.72;;;26.08
64947;BMP280;51469;52.150;4.682;2023-06-04T09:19:08;102600.97;;;25.84
64947;BMP280;51469;52.150;4.682;2023-06-04T09:21:33;102597.03;;;25.53
64947;BMP280;51469;52.150;4.682;2023-06-04T09:23:58;102605.97;;;26.05
64947;BMP280;51469;52.150;4.682;2023-06-04T09:26:24;102601.38;;;25.70
64947;BMP280;51469;52.150;4.682;2023-06-04T09:28:50;102602.13;;;25.58
64947;BMP280;51469;52.150;4.682;2023-06-04T09:31:18;102599.25;;;26.15
64947;BMP280;51469;52.150;4.682;2023-06-04T09:33:46;102599.38;;;25.42
64947;BMP280;51469;52.150;4.682;2023-06-04T09:36:12;102610.84;;;25.76
64947;BMP280;51469;52.150;4.682;2023-06-04T09:38:38;102608.28;;;25.53
64947;BMP280;51469;52.150;4.682;2023-06-04T09:41:04;102614.50;;;25.89
64947;BMP280;51469;52.150;4.682;2023-06-04T09:43:30;102606.81;;;26.30
64947;BMP280;51469;52.150;4.682;2023-06-04T09:46:10;102619.97;;;26.46
64947;BMP280;51469;52.150;4.682;2023-06-04T09:48:36;102605.59;;;26.56
64947;BMP280;51469;52.150;4.682;2023-06-04T09:53:33;102599.94;;;26.44
64947;BMP280;51469;52.150;4.682;2023-06-04T09:56:00;102618.09;;;26.55
64947;BMP280;51469;52.150;4.682;2023-06-04T09:58:27;102604.28;;;26.82
64947;BMP280;51469;52.150;4.682;2023-06-04T10:00:57;102596.13;;;26.63
64947;BMP280;51469;52.150;4.682;2023-06-04T10:03:30;102606.59;;;26.75
64947;BMP280;51469;52.150;4.682;2023-06-04T10:05:58;102602.81;;;27.03
64947;BMP280;51469;52.150;4.682;2023-06-04T10:08:26;102596.19;;;27.31
64947;BMP280;51469;52.150;4.682;2023-06-04T10:10:56;102606.94;;;26.52
64947;BMP280;51469;52.150;4.682;2023-06-04T10:13:24;102606.91;;;26.27
64947;BMP280;51469;52.150;4.682;2023-06-04T10:15:52;102598.38;;;26.43
64947;BMP280;51469;52.150;4.682;2023-06-04T10:18:18;102611.38;;;26.12
64947;BMP280;51469;52.150;4.682;2023-06-04T10:20:44;102608.06;;;26.42
64947;BMP280;51469;52.150;4.682;2023-06-04T10:23:10;102601.75;;;26.50
64947;BMP280;51469;52.150;4.682;2023-06-04T10:25:36;102603.38;;;26.85
64947;BMP280;51469;52.150;4.682;2023-06-04T10:28:02;102602.63;;;27.19
64947;BMP280;51469;52.150;4.682;2023-06-04T10:30:31;102605.09;;;27.29
64947;BMP280;51469;52.150;4.682;2023-06-04T10:32:57;102596.56;;;27.42
64947;BMP280;51469;52.150;4.682;2023-06-04T10:35:33;102599.06;;;27.40
64947;BMP280;51469;52.150;4.682;2023-06-04T10:38:09;102602.44;;;27.35
64947;BMP280;51469;52.150;4.682;2023-06-04T10:40:35;102591.97;;;27.35
64947;BMP280;51469;52.150;4.682;2023-06-04T10:43:08;102601.22;;;27.02
64947;BMP280;51469;52.150;4.682;2023-06-04T10:45:34;102597.72;;;27.32
64947;BMP280;51469;52.150;4.682;2023-06-04T10:48:00;102607.00;;;27.54
64947;BMP280;51469;52.150;4.682;2023-06-04T10:50:26;102606.81;;;27.48
64947;BMP280;51469;52.150;4.682;2023-06-04T10:52:52;102611.41;;;27.55
64947;BMP280;51469;52.150;4.682;2023-06-04T10:55:18;102598.59;;;27.62
64947;BMP280;51469;52.150;4.682;2023-06-04T10:57:57;102603.66;;;27.46
64947;BMP280;51469;52.150;4.682;2023-06-04T11:00:42;102605.84;;;27.30
64947;BMP280;51469;52.150;4.682;2023-06-04T11:03:10;102601.50;;;27.71
64947;BMP280;51469;52.150;4.682;2023-06-04T11:05:37;102597.34;;;28.06
64947;BMP280;51469;52.150;4.682;2023-06-04T11:08:04;102597.75;;;28.26
64947;BMP280;51469;52.150;4.682;2023-06-04T11:10:37;102601.91;;;28.52
64947;BMP280;51469;52.150;4.682;2023-06-04T11:13:03;102599.03;;;28.43
64947;BMP280;51469;52.150;4.682;2023-06-04T11:15:43;102594.44;;;28.76
64947;BMP280;51469;52.150;4.682;2023-06-04T11:18:19;102591.88;;;28.60
64947;BMP280;51469;52.150;4.682;2023-06-04T11:20:49;102584.34;;;28.66
64947;BMP280;51469;52.150;4.682;2023-06-04T11:23:16;102591.25;;;28.17
64947;BMP280;51469;52.150;4.682;2023-06-04T11:25:42;102596.53;;;28.45
64947;BMP280;51469;52.150;4.682;2023-06-04T11:28:14;102584.91;;;28.43
64947;BMP280;51469;52.150;4.682;2023-06-04T11:30:40;102595.91;;;28.41
64947;BMP280;51469;52.150;4.682;2023-06-04T11:33:06;102588.00;;;28.36
64947;BMP280;51469;52.150;4.682;2023-06-04T11:35:40;102595.91;;;28.41
64947;BMP280;51469;52.150;4.682;2023-06-04T11:38:06;102592.38;;;28.28
64947;BMP280;51469;52.150;4.682;2023-06-04T11:40:31;102587.97;;;28.18
64947;BMP280;51469;52.150;4.682;2023-06-04T11:42:56;102589.91;;;28.21
64947;BMP280;51469;52.150;4.682;2023-06-04T11:45:22;102592.84;;;28.18
64947;BMP280;51469;52.150;4.682;2023-06-04T11:50:15;102574.59;;;28.58
64947;BMP280;51469;52.150;4.682;2023-06-04T11:52:41;102566.47;;;28.69
64947;BMP280;51469;52.150;4.682;2023-06-04T11:55:09;102559.28;;;28.95
64947;BMP280;51469;52.150;4.682;2023-06-04T11:57:36;102562.06;;;28.59
64947;BMP280;51469;52.150;4.682;2023-06-04T12:00:01;102556.66;;;28.34
64947;BMP280;51469;52.150;4.682;2023-06-04T12:02:27;102566.88;;;28.01
64947;BMP280;51469;52.150;4.682;2023-06-04T12:04:53;102563.91;;;27.74
64947;BMP280;51469;52.150;4.682;2023-06-04T12:07:21;102558.53;;;27.67
64947;BMP280;51469;52.150;4.682;2023-06-04T12:09:50;102566.34;;;28.33
64947;BMP280;51469;52.150;4.682;2023-06-04T12:12:21;102563.94;;;28.44
64947;BMP280;51469;52.150;4.682;2023-06-04T12:14:47;102563.34;;;28.67
64947;BMP280;51469;52.150;4.682;2023-06-04T12:17:13;102557.56;;;28.31
64947;BMP280;51469;52.150;4.682;2023-06-04T12:19:48;102564.63;;;28.93
64947;BMP280;51469;52.150;4.682;2023-06-04T12:22:14;102566.75;;;29.52
64947;BMP280;51469;52.150;4.682;2023-06-04T12:24:48;102555.81;;;29.27
64947;BMP280;51469;52.150;4.682;2023-06-04T12:27:14;102564.31;;;28.82
64947;BMP280;51469;52.150;4.682;2023-06-04T12:29:40;102558.59;;;28.55
64947;BMP280;51469;52.150;4.682;2023-06-04T12:32:09;102558.56;;;28.46
64947;BMP280;51469;52.150;4.682;2023-06-04T12:34:37;102563.00;;;28.47
64947;BMP280;51469;52.150;4.682;2023-06-04T12:37:03;102547.75;;;28.63
64947;BMP280;51469;52.150;4.682;2023-06-04T12:39:31;102545.47;;;29.06
64947;BMP280;51469;52.150;4.682;2023-06-04T12:41:57;102560.50;;;29.12
64947;BMP280;51469;52.150;4.682;2023-06-04T12:44:22;102551.38;;;29.44
64947;BMP280;51469;52.150;4.682;2023-06-04T12:46:47;102558.63;;;29.36
64947;BMP280;51469;52.150;4.682;2023-06-04T12:49:23;102545.03;;;29.67
64947;BMP280;51469;52.150;4.682;2023-06-04T12:51:48;102552.19;;;29.86
64947;BMP280;51469;52.150;4.682;2023-06-04T12:54:13;102559.25;;;29.40
64947;BMP280;51469;52.150;4.682;2023-06-04T12:56:40;102552.81;;;29.57
64947;BMP280;51469;52.150;4.682;2023-06-04T12:59:06;102546.25;;;29.84
64947;BMP280;51469;52.150;4.682;2023-06-04T13:01:31;102549.03;;;29.51
64947;BMP280;51469;52.150;4.682;2023-06-04T13:03:57;102545.03;;;29.67
64947;BMP280;51469;52.150;4.682;2023-06-04T13:06:23;102546.53;;;29.86
64947;BMP280;51469;52.150;4.682;2023-06-04T13:08:48;102546.34;;;29.57
64947;BMP280;51469;52.150;4.682;2023-06-04T13:11:13;102553.75;;;29.45
64947;BMP280;51469;52.150;4.682;2023-06-04T13:13:39;102541.00;;;29.50
64947;BMP280;51469;52.150;4.682;2023-06-04T13:16:04;102545.00;;;29.76
64947;BMP280;51469;52.150;4.682;2023-06-04T13:18:29;102554.69;;;29.51
64947;BMP280;51469;52.150;4.682;2023-06-04T13:20:55;102540.44;;;29.10
64947;BMP280;51469;52.150;4.682;2023-06-04T13:23:21;102533.72;;;29.67
64947;BMP280;51469;52.150;4.682;2023-06-04T13:25:47;102543.25;;;28.83
64947;BMP280;51469;52.150;4.682;2023-06-04T13:28:12;102544.19;;;28.71
64947;BMP280;51469;52.150;4.682;2023-06-04T13:30:38;102543.22;;;29.37
64947;BMP280;51469;52.150;4.682;2023-06-04T13:33:04;102545.03;;;29.67
64947;BMP280;51469;52.150;4.682;2023-06-04T13:35:30;102535.03;;;29.57
64947;BMP280;51469;52.150;4.682;2023-06-04T13:37:56;102537.75;;;28.98
64947;BMP280;51469;52.150;4.682;2023-06-04T13:40:21;102544.03;;;29.29
64947;BMP280;51469;52.150;4.682;2023-06-04T13:42:47;102541.66;;;29.36
64947;BMP280;51469;52.150;4.682;2023-06-04T13:45:12;102540.19;;;29.58
64947;BMP280;51469;52.150;4.682;2023-06-04T13:47:38;102540.59;;;29.75
64947;BMP280;51469;52.150;4.682;2023-06-04T13:50:04;102535.41;;;29.14
64947;BMP280;51469;52.150;4.682;2023-06-04T13:52:30;102543.25;;;28.92
64947;BMP280;51469;52.150;4.682;2023-06-04T13:54:58;102531.91;;;29.37
64947;BMP280;51469;52.150;4.682;2023-06-04T13:57:27;102532.59;;;29.73
64947;BMP280;51469;52.150;4.682;2023-06-04T13:59:53;102529.56;;;29.27
64947;BMP280;51469;52.150;4.682;2023-06-04T14:02:18;102523.59;;;29.42
64947;BMP280;51469;52.150;4.682;2023-06-04T14:04:44;102526.84;;;29.59
64947;BMP280;51469;52.150;4.682;2023-06-04T14:07:09;102524.00;;;29.59